Time;durP1;ratioP1;P1;durP2;ratioP2;P2;SDS_P1;SDS_P2;PMS_P1;PMS_P2;Temp;Humidity;BMP_temperature;BMP_pressure;BME280_temperature;BME280_humidity;BME280_pressure;Samples;Min_cycle;Max_cycle;Signal;HPM_P1;HPM_P2
2022/12/28 00:02:21;;;;;;;9.43;4.05;;;;;;;;;;5047338;28;20508;-75
2022/12/28 00:04:47;;;;;;;7.15;3.60;;;;;;;;;;5061302;28;20021;-73
2022/12/28 00:07:13;;;;;;;19.65;8.07;;;;;;;;;;5048580;28;20033;-75
2022/12/28 00:09:39;;;;;;;25.95;10.02;;;-0.10;99.90;;;;;;5047304;28;20028;-74
2022/12/28 00:12:05;;;;;;;23.50;7.90;;;;;;;;;;5035406;28;20390;-74
2022/12/28 00:14:30;;;;;;;13.90;7.72;;;0.20;99.90;;;;;;5047730;28;20493;-73
2022/12/28 00:16:56;;;;;;;13.88;7.05;;;0.20;99.90;;;;;;5047236;28;20032;-75
2022/12/28 00:19:22;;;;;;;31.17;9.13;;;;;;;;;;5046597;28;20470;-76
2022/12/28 00:21:48;;;;;;;17.20;6.20;;;0.10;99.90;;;;;;5055041;28;20025;-75
2022/12/28 00:24:24;;;;;;;13.35;6.38;;;-0.10;99.90;;;;;;5039877;28;20039;-74
2022/12/28 00:26:50;;;;;;;11.48;4.65;;;0.10;99.90;;;;;;5047738;28;20100;-74
2022/12/28 00:29:16;;;;;;;25.42;9.60;;;0.10;99.90;;;;;;5047980;28;20100;-74
2022/12/28 00:31:44;;;;;;;16.08;4.80;;;;;;;;;;5049979;28;20425;-74
2022/12/28 00:34:10;;;;;;;25.73;8.13;;;0.20;99.90;;;;;;5034709;28;20083;-76
2022/12/28 00:36:35;;;;;;;18.20;7.18;;;0.20;99.90;;;;;;5035037;28;20029;-76
2022/12/28 00:39:01;;;;;;;17.63;7.10;;;0.00;99.90;;;;;;5048870;28;20056;-76
2022/12/28 00:41:26;;;;;;;7.88;5.10;;;0.10;99.90;;;;;;5053949;28;20104;-74
2022/12/28 00:43:52;;;;;;;20.95;8.00;;;0.40;99.90;;;;;;5050296;28;20060;-76
2022/12/28 00:46:18;;;;;;;12.65;6.18;;;0.20;99.90;;;;;;5051746;28;20075;-76
2022/12/28 00:48:43;;;;;;;24.17;8.02;;;0.10;99.90;;;;;;5054369;28;20029;-75
2022/12/28 00:51:16;;;;;;;15.07;7.28;;;0.20;99.90;;;;;;5052421;28;20059;-73
2022/12/28 00:53:42;;;;;;;16.98;6.45;;;0.20;99.90;;;;;;5053390;28;20448;-73
2022/12/28 00:56:17;;;;;;;12.52;5.25;;;0.20;99.90;;;;;;5050191;28;20036;-74
2022/12/28 00:58:44;;;;;;;11.52;5.60;;;;;;;;;;5050157;28;20055;-73
2022/12/28 01:01:21;;;;;;;8.18;5.35;;;0.60;99.90;;;;;;5050973;28;20547;-76
2022/12/28 01:03:47;;;;;;;6.75;4.65;;;0.50;99.90;;;;;;5050877;28;20025;-76
2022/12/28 01:06:15;;;;;;;10.60;5.15;;;0.50;99.90;;;;;;5051085;28;20029;-75
2022/12/28 01:08:41;;;;;;;5.75;3.35;;;;;;;;;;5049460;28;20116;-74
2022/12/28 01:11:12;;;;;;;6.93;4.30;;;;;;;;;;5049434;28;20021;-75
2022/12/28 01:13:38;;;;;;;8.50;4.85;;;0.50;99.90;;;;;;5050310;28;20041;-74
2022/12/28 01:16:11;;;;;;;5.60;4.30;;;0.60;99.90;;;;;;5049807;28;20116;-74
2022/12/28 01:18:37;;;;;;;4.50;3.20;;;0.50;99.90;;;;;;5062902;28;20040;-74
2022/12/28 01:21:14;;;;;;;3.50;2.22;;;0.50;99.90;;;;;;5029470;28;20382;-74
2022/12/28 01:23:40;;;;;;;5.22;3.10;;;0.50;99.90;;;;;;5029816;28;20025;-73
2022/12/28 01:26:06;;;;;;;4.70;3.15;;;;;;;;;;5030752;28;20485;-76
2022/12/28 01:28:33;;;;;;;6.90;3.05;;;;;;;;;;5030440;28;20033;-75
2022/12/28 01:31:06;;;;;;;3.15;2.83;;;0.60;99.90;;;;;;5045366;28;20060;-74
2022/12/28 01:33:32;;;;;;;3.10;2.25;;;0.70;99.90;;;;;;5045916;28;20105;-73
2022/12/28 01:35:58;;;;;;;4.60;2.55;;;0.50;99.90;;;;;;5032120;28;20426;-75
2022/12/28 01:38:23;;;;;;;3.30;2.55;;;0.50;99.90;;;;;;5031853;28;20081;-72
2022/12/28 01:40:49;;;;;;;6.53;2.88;;;;;;;;;;5046064;28;20533;-74
2022/12/28 01:43:15;;;;;;;2.30;2.10;;;0.60;99.90;;;;;;5032178;28;20369;-75
2022/12/28 01:45:46;;;;;;;4.45;2.08;;;0.40;99.90;;;;;;5030350;28;20025;-73
2022/12/28 01:48:21;;;;;;;3.63;1.92;;;0.40;99.90;;;;;;5031092;28;20059;-75
2022/12/28 01:50:48;;;;;;;3.08;2.38;;;0.30;99.90;;;;;;5031325;28;20713;-74
2022/12/28 01:53:15;;;;;;;6.32;3.17;;;;;;;;;;5032015;28;20321;-76
2022/12/28 01:55:42;;;;;;;4.07;2.85;;;0.30;99.90;;;;;;5032626;28;20021;-71
2022/12/28 01:58:15;;;;;;;3.08;2.28;;;0.30;99.90;;;;;;5031145;28;20026;-73
2022/12/28 02:00:41;;;;;;;4.88;2.03;;;0.90;99.90;;;;;;5029218;28;20105;-77
2022/12/28 02:03:12;;;;;;;3.25;2.30;;;0.40;99.90;;;;;;5030136;28;20117;-74
2022/12/28 02:05:42;;;;;;;3.90;2.28;;;0.40;99.90;;;;;;5029513;28;20071;-76
2022/12/28 02:08:25;;;;;;;2.63;2.00;;;2.00;99.90;;;;;;5030551;28;20029;-75
2022/12/28 02:10:51;;;;;;;7.72;1.95;;;0.30;99.90;;;;;;5029285;28;20022;-74
2022/12/28 02:13:18;;;;;;;2.78;1.42;;;;;;;;;;5029708;28;20037;-75
2022/12/28 02:15:45;;;;;;;2.78;1.77;;;0.30;99.90;;;;;;5029007;28;20052;-75
2022/12/28 02:18:13;;;;;;;1.80;1.70;;;0.20;99.90;;;;;;5040928;28;20028;-72
2022/12/28 02:21:17;;;;;;;2.58;1.80;;;0.20;99.90;;;;;;5048787;28;20459;-70
2022/12/28 02:23:54;;;;;;;3.40;1.40;;;0.10;99.90;;;;;;5049073;28;20021;-72
2022/12/28 02:26:23;;;;;;;1.65;1.55;;;0.30;99.90;;;;;;5049475;28;20039;-72
2022/12/28 02:28:48;;;;;;;4.03;2.58;;;0.20;99.90;;;;;;5049394;28;20381;-76
2022/12/28 02:31:30;;;;;;;4.13;2.13;;;0.10;99.90;;;;;;5048778;28;20632;-76
2022/12/28 02:34:15;;;;;;;2.50;2.08;;;0.00;99.90;;;;;;5050524;28;20041;-78
2022/12/28 02:37:06;;;;;;;2.60;2.28;;;0.00;99.90;;;;;;5049093;28;20474;-74
2022/12/28 02:39:50;;;;;;;6.05;3.13;;;0.00;99.90;;;;;;5048544;28;20049;-75
2022/12/28 02:42:17;;;;;;;5.18;2.00;;;-0.10;99.90;;;;;;5049039;28;20024;-74
2022/12/28 02:50:14;;;;;;;3.55;1.80;;;-0.20;99.90;;;;;;5048953;28;20067;-76
2022/12/28 02:52:40;;;;;;;2.95;2.28;;;;;;;;;;5064651;28;20021;-75
2022/12/28 02:58:46;;;;;;;1.75;1.52;;;-0.10;99.90;;;;;;5050015;28;20040;-73
2022/12/28 03:01:49;;;;;;;4.13;2.42;;;-0.10;99.90;;;;;;5064083;28;20677;-73
2022/12/28 03:04:42;;;;;;;1.98;1.30;;;0.00;99.90;;;;;;5048993;28;20028;-73
2022/12/28 03:10:24;;;;;;;1.85;1.25;;;1.50;99.90;;;;;;5049375;28;20242;-74
2022/12/28 03:16:06;;;;;;;1.42;1.30;;;0.00;99.90;;;;;;5049406;28;20043;-73
2022/12/28 03:32:31;;;;;;;1.42;1.30;;;0.20;99.90;;;;;;5047696;28;20099;-74
2022/12/28 03:34:57;;;;;;;2.15;1.20;;;0.70;99.90;;;;;;5047608;28;20040;-75
2022/12/28 03:37:30;;;;;;;1.13;1.08;;;0.20;99.90;;;;;;5047882;28;20473;-77
2022/12/28 03:40:10;;;;;;;1.33;1.02;;;0.30;99.90;;;;;;5047477;28;20079;-75
2022/12/28 03:46:03;;;;;;;2.87;1.23;;;0.30;99.90;;;;;;5047274;28;20035;-72
2022/12/28 03:48:32;;;;;;;1.65;1.17;;;0.00;99.90;;;;;;5031039;28;20116;-75
2022/12/28 03:50:58;;;;;;;2.85;1.65;;;0.50;99.90;;;;;;5047585;28;20548;-75
2022/12/28 03:53:29;;;;;;;1.38;1.27;;;0.00;99.90;;;;;;5045997;28;20678;-73
2022/12/28 03:56:06;;;;;;;2.88;1.77;;;0.10;99.90;;;;;;5047504;28;20028;-74
2022/12/28 03:58:32;;;;;;;1.83;1.48;;;-0.10;99.90;;;;;;5047484;28;20031;-76
2022/12/28 04:00:57;;;;;;;1.92;1.25;;;-0.30;99.90;;;;;;5046966;28;20032;-71
2022/12/28 04:03:23;;;;;;;1.50;1.10;;;-0.20;99.90;;;;;;5047132;28;20039;-71
2022/12/28 04:05:49;;;;;;;1.73;1.50;;;;;;;;;;5046192;28;20083;-71
2022/12/28 04:08:15;;;;;;;4.25;1.35;;;-0.20;99.90;;;;;;5045860;28;20044;-71
2022/12/28 04:10:40;;;;;;;1.27;1.20;;;-0.50;99.90;;;;;;5046859;28;20052;-72
2022/12/28 04:13:06;;;;;;;2.13;1.45;;;;;;;;;;5047121;28;20037;-72
2022/12/28 04:15:32;;;;;;;1.67;1.35;;;-0.40;99.90;;;;;;5044991;28;20051;-72
2022/12/28 04:18:02;;;;;;;1.00;1.00;;;-0.50;99.90;;;;;;5037128;28;20071;-77
2022/12/28 04:20:28;;;;;;;1.33;1.00;;;-0.60;99.90;;;;;;5027119;28;20795;-73
2022/12/28 04:22:53;;;;;;;1.85;1.23;;;-0.60;99.90;;;;;;5026848;28;20033;-76
2022/12/28 04:25:19;;;;;;;1.58;1.30;;;-0.50;99.90;;;;;;5025960;28;20118;-76
2022/12/28 04:27:44;;;;;;;2.38;1.20;;;-0.60;99.90;;;;;;5027466;28;20040;-75
2022/12/28 04:30:10;;;;;;;1.35;1.30;;;-0.70;99.90;;;;;;5029636;28;20425;-76
2022/12/28 04:32:36;;;;;;;3.15;0.80;;;-0.50;99.90;;;;;;5030419;28;20160;-74
2022/12/28 04:35:02;;;;;;;1.58;1.48;;;-0.80;99.90;;;;;;5029625;28;20140;-75
2022/12/28 04:37:28;;;;;;;2.60;2.40;;;;;;;;;;5031295;28;20075;-76
2022/12/28 04:39:53;;;;;;;3.45;2.55;;;-0.60;99.90;;;;;;5045850;28;20745;-76
2022/12/28 04:42:19;;;;;;;2.90;1.35;;;-0.60;99.90;;;;;;5029620;28;20064;-76
2022/12/28 04:44:45;;;;;;;1.38;1.30;;;-0.60;99.90;;;;;;5029719;28;20052;-75
2022/12/28 04:47:10;;;;;;;2.40;1.52;;;-0.60;99.90;;;;;;5029126;28;20488;-75
2022/12/28 04:49:36;;;;;;;2.67;1.52;;;;;;;;;;5030938;28;20065;-75
2022/12/28 04:52:02;;;;;;;1.80;1.33;;;-0.50;99.90;;;;;;5029155;28;20057;-75
2022/12/28 04:54:28;;;;;;;1.90;1.48;;;-0.50;99.90;;;;;;5027773;28;20041;-74
2022/12/28 04:56:53;;;;;;;1.95;1.20;;;-0.50;99.90;;;;;;5026654;28;20056;-75
2022/12/28 04:59:19;;;;;;;2.50;1.60;;;-0.50;99.90;;;;;;5026665;28;20489;-77
2022/12/28 05:01:45;;;;;;;1.58;1.48;;;-0.40;99.90;;;;;;5026492;28;20092;-75
2022/12/28 05:04:11;;;;;;;2.38;1.42;;;;;;;;;;5026984;28;20029;-74
2022/12/28 05:06:36;;;;;;;2.03;1.33;;;-0.30;99.90;;;;;;5027002;28;20014;-75
2022/12/28 05:09:02;;;;;;;3.33;2.13;;;-0.30;99.90;;;;;;5027748;28;20524;-75
2022/12/28 05:11:28;;;;;;;1.80;1.70;;;;;;;;;;5026533;28;20037;-76
2022/12/28 05:13:55;;;;;;;1.58;1.33;;;-0.40;99.90;;;;;;5027121;28;20034;-75
2022/12/28 05:16:23;;;;;;;4.22;1.55;;;-0.30;99.90;;;;;;5029203;28;20013;-76
2022/12/28 05:18:49;;;;;;;6.32;1.42;;;-0.40;99.90;;;;;;5047881;28;20641;-75
2022/12/28 05:21:20;;;;;;;1.15;1.10;;;1.20;99.90;;;;;;5051216;28;20056;-73
2022/12/28 05:23:47;;;;;;;3.22;1.20;;;-0.40;99.90;;;;;;5050383;28;20021;-76
2022/12/28 05:26:15;;;;;;;2.28;1.40;;;-0.40;99.90;;;;;;5051359;28;20026;-77
2022/12/28 05:28:43;;;;;;;1.20;1.10;;;;;;;;;;5053544;28;20056;-74
2022/12/28 05:31:14;;;;;;;1.77;1.67;;;-0.30;99.90;;;;;;5053878;28;20497;-74
2022/12/28 05:33:40;;;;;;;1.42;1.33;;;-0.40;99.90;;;;;;5053804;28;20037;-75
2022/12/28 05:36:08;;;;;;;2.88;1.58;;;-0.30;99.90;;;;;;5054348;28;20025;-75
2022/12/28 05:38:34;;;;;;;1.73;1.02;;;-0.20;99.90;;;;;;5053153;28;20057;-74
2022/12/28 05:41:04;;;;;;;7.13;1.92;;;1.40;99.90;;;;;;5052912;28;20083;-74
2022/12/28 05:43:30;;;;;;;1.15;1.00;;;-0.50;99.90;;;;;;5053301;28;20104;-75
2022/12/28 05:46:03;;;;;;;1.30;1.08;;;-0.20;99.90;;;;;;5054008;28;20063;-77
2022/12/28 05:48:31;;;;;;;0.98;0.98;;;-0.40;99.90;;;;;;5053620;28;20048;-75
2022/12/28 05:51:02;;;;;;;1.48;1.15;;;-0.50;99.90;;;;;;5053103;28;20021;-74
2022/12/28 05:53:30;;;;;;;1.08;0.98;;;-0.50;99.90;;;;;;5053539;28;20041;-74
2022/12/28 05:56:01;;;;;;;1.15;1.02;;;-0.50;99.90;;;;;;5068634;28;20053;-75
2022/12/28 05:58:26;;;;;;;6.35;1.50;;;-0.30;99.90;;;;;;5052655;28;20083;-74
2022/12/28 06:00:52;;;;;;;1.55;0.93;;;-0.50;99.90;;;;;;5052874;28;20029;-73
2022/12/28 06:03:18;;;;;;;16.83;8.00;;;-0.50;99.90;;;;;;5053028;28;20076;-72
2022/12/28 06:05:44;;;;;;;8.55;3.75;;;;;;;;;;5053510;28;20021;-75
2022/12/28 06:08:09;;;;;;;6.93;2.90;;;-0.50;99.90;;;;;;5053863;28;20482;-74
2022/12/28 06:10:35;;;;;;;10.45;6.43;;;-0.40;99.90;;;;;;5051717;28;20082;-74
2022/12/28 06:13:01;;;;;;;9.93;3.40;;;-0.50;99.90;;;;;;5052616;28;20351;-73
2022/12/28 06:15:26;;;;;;;7.10;4.40;;;-0.50;99.90;;;;;;5052417;28;20478;-74
2022/12/28 06:17:52;;;;;;;10.23;4.68;;;-0.60;99.90;;;;;;5052922;28;20028;-75
2022/12/28 06:20:18;;;;;;;7.45;2.65;;;-0.50;99.90;;;;;;5053363;28;20047;-75
2022/12/28 06:22:43;;;;;;;10.57;4.18;;;-0.40;99.90;;;;;;5053418;28;20023;-75
2022/12/28 06:25:09;;;;;;;7.35;3.90;;;-0.50;99.90;;;;;;5052561;28;20378;-75
2022/12/28 06:27:35;;;;;;;11.05;4.47;;;-0.50;99.90;;;;;;5052535;28;20029;-75
2022/12/28 06:30:01;;;;;;;4.57;2.47;;;-0.50;99.90;;;;;;5068812;28;20039;-75
2022/12/28 06:32:26;;;;;;;14.65;2.75;;;-0.50;99.90;;;;;;5053658;28;20427;-75
2022/12/28 06:34:52;;;;;;;12.48;5.82;;;-0.60;99.90;;;;;;5051979;28;20668;-75
2022/12/28 06:37:17;;;;;;;6.57;3.10;;;-0.50;99.90;;;;;;5054327;28;20359;-75
2022/12/28 06:39:43;;;;;;;14.40;5.93;;;-0.60;99.90;;;;;;5069453;28;20055;-74
2022/12/28 06:42:09;;;;;;;11.13;3.58;;;-0.60;99.90;;;;;;5056001;28;20485;-74
2022/12/28 06:44:34;;;;;;;5.53;3.33;;;-0.60;99.90;;;;;;5055940;28;20603;-74
2022/12/28 06:47:00;;;;;;;5.70;4.45;;;-0.40;99.90;;;;;;5069556;28;20029;-71
2022/12/28 06:49:26;;;;;;;12.00;5.18;;;-0.60;99.90;;;;;;5051353;28;20025;-72
2022/12/28 06:51:52;;;;;;;9.15;4.03;;;-0.50;99.90;;;;;;5051426;28;20017;-71
2022/12/28 06:54:18;;;;;;;6.65;2.92;;;-0.60;99.90;;;;;;5049913;28;20515;-72
2022/12/28 06:56:43;;;;;;;7.97;3.10;;;-0.60;99.90;;;;;;5051331;28;20017;-72
2022/12/28 06:59:09;;;;;;;4.95;2.88;;;-0.50;99.90;;;;;;5050996;28;20604;-71
2022/12/28 07:01:37;;;;;;;4.63;2.25;;;-0.40;99.90;;;;;;5051141;28;20017;-72
2022/12/28 07:04:05;;;;;;;4.47;2.95;;;-0.40;99.90;;;;;;5050945;28;20036;-71
2022/12/28 07:06:35;;;;;;;3.28;2.00;;;-0.50;99.90;;;;;;5050717;28;20045;-73
2022/12/28 07:09:03;;;;;;;3.78;2.47;;;-0.50;99.90;;;;;;5050796;28;20028;-72
2022/12/28 07:11:29;;;;;;;3.90;3.58;;;-0.30;99.90;;;;;;5051018;28;20033;-74
2022/12/28 07:13:55;;;;;;;1.80;1.70;;;-0.30;99.90;;;;;;5050712;28;20087;-71
2022/12/28 07:16:22;;;;;;;2.17;2.05;;;-0.30;99.90;;;;;;5050973;28;20029;-71
2022/12/28 07:18:48;;;;;;;5.10;3.70;;;0.50;99.90;;;;;;5049722;28;20021;-72
2022/12/28 07:21:17;;;;;;;12.73;6.07;;;0.00;99.90;;;;;;5045329;28;20057;-74
2022/12/28 07:23:43;;;;;;;22.67;9.85;;;-0.20;99.90;;;;;;5064114;28;20116;-74
2022/12/28 07:26:11;;;;;;;11.73;6.10;;;-0.30;99.90;;;;;;5049039;28;20184;-77
2022/12/28 07:28:39;;;;;;;20.08;11.98;;;-0.40;99.90;;;;;;5047739;28;20048;-73
2022/12/28 07:31:10;;;;;;;18.55;10.75;;;-0.20;99.90;;;;;;5047506;28;20025;-74
2022/12/28 07:33:36;;;;;;;18.45;7.80;;;-0.20;99.90;;;;;;5054423;28;20061;-76
2022/12/28 07:36:04;;;;;;;16.77;7.88;;;-0.20;99.90;;;;;;5054396;28;20024;-75
2022/12/28 07:38:30;;;;;;;10.90;7.28;;;-0.20;99.90;;;;;;5058944;28;20123;-75
2022/12/28 07:41:32;;;;;;;16.67;8.38;;;-0.20;99.90;;;;;;5057116;28;20036;-75
2022/12/28 07:43:58;;;;;;;15.45;7.82;;;;;;;;;;5060960;28;20038;-75
2022/12/28 07:46:29;;;;;;;19.30;8.05;;;0.00;99.90;;;;;;5048004;28;20028;-75
2022/12/28 07:48:56;;;;;;;15.43;8.60;;;;;;;;;;5047987;28;20028;-75
2022/12/28 07:51:26;;;;;;;16.02;8.60;;;-0.20;99.90;;;;;;5047413;28;20365;-75
2022/12/28 07:53:53;;;;;;;16.40;8.13;;;-0.10;99.90;;;;;;5047646;28;20554;-77
2022/12/28 07:56:19;;;;;;;17.55;8.18;;;;;;;;;;5057077;28;20029;-75
2022/12/28 07:58:53;;;;;;;20.20;8.77;;;0.10;99.90;;;;;;5058949;28;20025;-80
2022/12/28 08:01:21;;;;;;;15.45;7.70;;;0.10;99.90;;;;;;5048859;28;20132;-80
2022/12/28 08:03:50;;;;;;;14.38;7.90;;;0.10;99.90;;;;;;5049187;28;20025;-76
2022/12/28 08:06:18;;;;;;;16.27;7.40;;;1.90;99.90;;;;;;5051868;28;20112;-75
2022/12/28 08:08:45;;;;;;;17.48;7.93;;;;;;;;;;5062799;28;20072;-76
2022/12/28 08:11:12;;;;;;;14.60;5.97;;;;;;;;;;5036947;28;20018;-75
2022/12/28 08:13:41;;;;;;;16.02;7.85;;;0.30;99.90;;;;;;5046061;28;20280;-77
2022/12/28 08:16:09;;;;;;;17.42;9.75;;;0.30;99.90;;;;;;5044287;28;20394;-77
2022/12/28 08:18:34;;;;;;;44.30;17.80;;;0.30;99.90;;;;;;5046971;28;20040;-75
2022/12/28 08:21:02;;;;;;;88.82;34.33;;;0.50;99.90;;;;;;5046594;28;20029;-76
2022/12/28 08:23:29;;;;;;;40.65;17.50;;;0.40;99.90;;;;;;5047792;28;20032;-76
2022/12/28 08:25:55;;;;;;;15.13;7.00;;;;;;;;;;5048076;28;20082;-76
2022/12/28 08:28:21;;;;;;;15.68;9.85;;;0.50;99.90;;;;;;5050040;28;20036;-77
2022/12/28 08:30:46;;;;;;;12.48;7.63;;;0.90;99.90;;;;;;5046250;28;20535;-75
2022/12/28 08:33:12;;;;;;;18.65;9.13;;;;;;;;;;5050707;28;20024;-75
2022/12/28 08:35:38;;;;;;;32.53;17.45;;;1.00;99.90;;;;;;5048082;28;20390;-73
2022/12/28 08:38:03;;;;;;;20.70;12.05;;;1.60;99.90;;;;;;5047216;28;20036;-76
2022/12/28 08:40:29;;;;;;;13.23;8.55;;;;;;;;;;5052288;28;20032;-76
2022/12/28 08:42:59;;;;;;;9.43;6.07;;;1.60;99.90;;;;;;5059174;28;20032;-76
2022/12/28 08:45:25;;;;;;;9.52;6.10;;;1.60;99.90;;;;;;5061768;28;20031;-76
2022/12/28 08:47:52;;;;;;;8.60;6.07;;;2.60;99.90;;;;;;5062296;28;20031;-76
2022/12/28 08:50:18;;;;;;;12.63;7.88;;;1.70;99.90;;;;;;5061596;28;20020;-74
2022/12/28 08:52:43;;;;;;;13.18;8.10;;;1.90;99.90;;;;;;5063847;28;20202;-75
2022/12/28 08:55:09;;;;;;;11.35;7.05;;;;;;;;;;5063921;28;20032;-77
2022/12/28 08:57:35;;;;;;;13.45;7.13;;;;;;;;;;5064017;28;20043;-74
2022/12/28 09:00:02;;;;;;;13.48;8.45;;;2.10;99.90;;;;;;5063789;28;20035;-75
2022/12/28 09:02:28;;;;;;;9.75;6.32;;;;;;;;;;5059801;28;20386;-76
2022/12/28 09:04:54;;;;;;;12.57;7.25;;;2.20;99.90;;;;;;5051306;28;20025;-75
2022/12/28 09:07:20;;;;;;;8.30;5.28;;;;;;;;;;5050261;28;20033;-74
2022/12/28 09:09:46;;;;;;;8.02;5.68;;;2.40;99.90;;;;;;5050044;28;20071;-76
2022/12/28 09:12:11;;;;;;;9.18;6.38;;;2.60;99.90;;;;;;5052026;28;20025;-75
2022/12/28 09:14:37;;;;;;;11.60;5.97;;;;;;;;;;5050661;28;20040;-73
2022/12/28 09:17:03;;;;;;;13.15;8.55;;;;;;;;;;5038170;28;20036;-76
2022/12/28 09:19:29;;;;;;;12.57;5.80;;;2.90;99.90;;;;;;5031211;28;20040;-76
2022/12/28 09:21:55;;;;;;;17.10;8.90;;;;;;;;;;5031146;28;20033;-74
2022/12/28 09:24:22;;;;;;;16.50;8.60;;;4.30;99.90;;;;;;5031205;28;20022;-76
2022/12/28 09:26:51;;;;;;;19.48;7.65;;;;;;;;;;5031910;28;20037;-76
2022/12/28 09:29:17;;;;;;;13.30;8.23;;;;;;;;;;5031998;28;20029;-75
2022/12/28 09:31:43;;;;;;;9.40;5.45;;;;;;;;;;5047175;28;20103;-77
2022/12/28 09:34:12;;;;;;;48.30;19.65;;;4.00;99.90;;;;;;5030823;28;20034;-77
2022/12/28 09:36:38;;;;;;;16.58;6.78;;;4.00;99.90;;;;;;5041424;28;20233;-75
2022/12/28 09:39:06;;;;;;;35.65;15.27;;;;;;;;;;5042057;28;20049;-76
2022/12/28 09:42:25;;;;;;;15.73;7.68;;;4.30;99.90;;;;;;5039888;28;20071;-77
2022/12/28 09:44:54;;;;;;;10.50;6.57;;;4.50;99.90;;;;;;4974184;28;20091;-75
2022/12/28 09:47:46;;;;;;;12.52;9.25;;;4.50;99.90;;;;;;4985860;28;20028;-74
2022/12/28 09:50:17;;;;;;;9.75;7.05;;;4.70;99.90;;;;;;5041755;28;20064;-74
2022/12/28 09:53:25;;;;;;;9.75;5.95;;;4.60;99.90;;;;;;5061048;28;20032;-76
2022/12/28 09:56:02;;;;;;;22.77;7.68;;;4.70;99.90;;;;;;5060322;28;20067;-76
2022/12/28 09:58:30;;;;;;;9.68;6.75;;;4.90;99.90;;;;;;5058938;28;20193;-76
2022/12/28 10:00:58;;;;;;;10.15;7.50;;;5.20;99.90;;;;;;5059810;28;20028;-76
2022/12/28 10:03:25;;;;;;;14.90;8.00;;;5.10;99.90;;;;;;5060694;28;20357;-76
2022/12/28 10:05:52;;;;;;;12.52;6.70;;;5.40;99.90;;;;;;5059035;28;20025;-76
2022/12/28 10:08:21;;;;;;;16.77;7.47;;;5.60;99.90;;;;;;5057210;28;20027;-76
2022/12/28 10:10:48;;;;;;;15.57;7.40;;;5.60;99.90;;;;;;5060281;28;20017;-75
2022/12/28 10:13:23;;;;;;;15.23;5.32;;;5.70;99.90;;;;;;5058923;28;20279;-75
2022/12/28 10:15:50;;;;;;;8.50;5.03;;;6.20;99.90;;;;;;5052490;28;20036;-74
2022/12/28 10:18:22;;;;;;;11.18;7.63;;;6.60;99.90;;;;;;5057619;28;20045;-75
2022/12/28 10:20:49;;;;;;;6.72;4.32;;;6.40;99.90;;;;;;5060044;28;20361;-76
2022/12/28 10:23:22;;;;;;;7.80;4.93;;;7.20;99.90;;;;;;5058602;28;20037;-75
2022/12/28 10:25:51;;;;;;;5.32;3.67;;;7.10;99.90;;;;;;5059077;28;20025;-75
2022/12/28 10:28:21;;;;;;;3.53;2.38;;;7.30;99.90;;;;;;5060581;28;20027;-76
2022/12/28 10:31:05;;;;;;;0.80;0.80;;;8.20;99.90;;;;;;5054114;28;20496;-74
2022/12/28 10:33:31;;;;;;;0.57;0.50;;;;;;;;;;5048114;28;20037;-76
2022/12/28 10:35:58;;;;;;;0.20;0.20;;;9.30;99.90;;;;;;5049340;28;20035;-75
2022/12/28 10:38:24;;;;;;;0.30;0.30;;;;;;;;;;5046271;28;20048;-75
2022/12/28 10:41:00;;;;;;;0.40;0.40;;;9.90;99.40;;;;;;5051974;28;20028;-76
2022/12/28 10:43:28;;;;;;;0.47;0.30;;;9.80;99.90;;;;;;5045743;28;20021;-74
2022/12/28 10:45:55;;;;;;;1.00;0.20;;;10.10;99.00;;;;;;5046827;28;20037;-76
2022/12/28 10:48:25;;;;;;;0.20;0.17;;;10.30;99.90;;;;;;5047795;28;20390;-75
2022/12/28 10:51:11;;;;;;;2.17;0.65;;;10.80;96.70;;;;;;5047135;28;20386;-74
2022/12/28 10:53:46;;;;;;;0.30;0.20;;;11.00;99.90;;;;;;5046101;28;20029;-74
2022/12/28 10:56:12;;;;;;;0.30;0.30;;;;;;;;;;5048474;28;20035;-76
2022/12/28 10:58:40;;;;;;;0.10;0.10;;;11.10;93.70;;;;;;5048885;28;20182;-75
2022/12/28 11:01:17;;;;;;;0.30;0.30;;;11.20;95.40;;;;;;5046625;28;20110;-75
2022/12/28 11:03:55;;;;;;;0.47;0.30;;;11.20;95.00;;;;;;5034861;28;20485;-76
2022/12/28 11:06:30;;;;;;;0.83;0.80;;;11.10;95.10;;;;;;5046297;28;20025;-75
2022/12/28 11:09:16;;;;;;;1.05;0.40;;;11.40;94.20;;;;;;5044714;28;20028;-75
2022/12/28 11:11:44;;;;;;;0.35;0.30;;;11.20;94.10;;;;;;5060512;28;20144;-75
2022/12/28 11:14:26;;;;;;;0.20;0.20;;;11.50;93.00;;;;;;5045890;28;20087;-75
2022/12/28 11:16:52;;;;;;;0.88;0.70;;;;;;;;;;5046490;28;20538;-75
2022/12/28 11:19:18;;;;;;;0.10;0.10;;;11.60;93.00;;;;;;5046710;28;20032;-74
2022/12/28 11:21:45;;;;;;;0.17;0.17;;;11.70;94.10;;;;;;5032787;28;20033;-74
2022/12/28 11:24:13;;;;;;;0.85;0.20;;;11.50;93.90;;;;;;5039984;28;20375;-74
2022/12/28 11:26:43;;;;;;;0.88;0.20;;;11.80;93.50;;;;;;5044291;28;20025;-74
2022/12/28 11:29:09;;;;;;;;;;;11.60;91.90;;;;;;5043651;28;20065;-74
2022/12/28 11:31:43;;;;;;;0.50;0.50;;;11.60;92.30;;;;;;5037028;28;19909;-74
2022/12/28 11:34:15;;;;;;;0.10;0.10;;;11.50;92.90;;;;;;5038781;28;20033;-75
2022/12/28 11:36:41;;;;;;;0.30;0.30;;;11.60;93.50;;;;;;5032781;28;20030;-75
2022/12/28 11:39:25;;;;;;;0.20;0.20;;;11.40;93.50;;;;;;5034463;28;20053;-75
2022/12/28 11:41:52;;;;;;;0.13;0.13;;;11.40;94.70;;;;;;5040741;28;20063;-75
2022/12/28 11:44:42;;;;;;;0.32;0.30;;;11.40;93.90;;;;;;5042209;28;20697;-76
2022/12/28 11:47:22;;;;;;;0.85;0.20;;;11.70;93.90;;;;;;5043912;28;20043;-75
2022/12/28 11:49:47;;;;;;;1.67;0.30;;;11.40;98.70;;;;;;5046856;28;20071;-74
2022/12/28 11:52:16;;;;;;;0.10;0.10;;;11.40;99.10;;;;;;5055634;28;20444;-75
2022/12/28 11:55:20;;;;;;;0.20;0.10;;;11.40;93.00;;;;;;5054078;28;20318;-75
2022/12/28 11:57:46;;;;;;;0.13;0.13;;;11.60;93.50;;;;;;5053515;28;20028;-75
2022/12/28 12:00:18;;;;;;;0.20;0.20;;;11.70;93.20;;;;;;5053215;28;20041;-73
2022/12/28 12:02:52;;;;;;;0.10;0.10;;;11.90;90.60;;;;;;5050071;28;20029;-75
2022/12/28 12:05:36;;;;;;;0.32;0.22;;;11.70;90.30;;;;;;5045728;28;20021;-73
2022/12/28 12:08:10;;;;;;;0.20;0.20;;;11.80;98.80;;;;;;5047541;28;20033;-75
2022/12/28 12:10:38;;;;;;;0.35;0.20;;;11.80;92.60;;;;;;5065380;28;20109;-75
2022/12/28 12:13:22;;;;;;;0.10;0.10;;;11.80;91.10;;;;;;5052749;28;20025;-73
2022/12/28 12:15:49;;;;;;;1.08;0.73;;;11.80;92.90;;;;;;5056585;28;20086;-74
2022/12/28 12:18:27;;;;;;;5.18;2.60;;;11.50;95.50;;;;;;5057353;28;20269;-74
2022/12/28 12:20:53;;;;;;;1.85;1.20;;;;;;;;;;5058208;28;20041;-76
2022/12/28 12:23:38;;;;;;;1.40;1.30;;;10.70;97.70;;;;;;5056427;28;20044;-75
2022/12/28 12:26:15;;;;;;;1.50;1.27;;;10.60;97.60;;;;;;5051696;28;20025;-75
2022/12/28 12:28:53;;;;;;;1.35;1.13;;;10.60;99.90;;;;;;5053033;28;20025;-77
2022/12/28 12:31:29;;;;;;;3.63;1.50;;;;;;;;;;5049047;28;20037;-76
2022/12/28 12:34:01;;;;;;;2.97;1.00;;;10.50;98.50;;;;;;5045729;28;20133;-76
2022/12/28 12:36:40;;;;;;;2.58;1.85;;;10.60;98.30;;;;;;5041123;28;20608;-74
2022/12/28 12:39:24;;;;;;;1.77;1.30;;;10.70;97.50;;;;;;5060166;28;20079;-75
2022/12/28 12:42:13;;;;;;;1.45;1.10;;;10.80;98.00;;;;;;5063782;28;20386;-75
2022/12/28 12:44:50;;;;;;;1.33;0.90;;;10.80;97.70;;;;;;5043331;28;20520;-76
2022/12/28 12:47:31;;;;;;;3.85;1.48;;;;;;;;;;5057923;28;20032;-76
2022/12/28 12:50:06;;;;;;;1.58;1.35;;;11.00;97.10;;;;;;5060721;28;20028;-75
2022/12/28 12:52:58;;;;;;;1.08;0.77;;;11.20;97.20;;;;;;5053665;28;20096;-75
2022/12/28 12:55:39;;;;;;;7.05;1.58;;;;;;;;;;5054516;28;20056;-75
2022/12/28 12:58:22;;;;;;;2.15;0.95;;;11.10;97.40;;;;;;5056279;28;20024;-74
2022/12/28 13:01:06;;;;;;;4.38;1.17;;;11.10;96.30;;;;;;5042000;28;20278;-75
2022/12/28 13:03:44;;;;;;;2.05;0.80;;;11.30;96.10;;;;;;5050132;28;20110;-76
2022/12/28 13:06:15;;;;;;;0.68;0.68;;;11.20;95.80;;;;;;5050888;28;20017;-75
2022/12/28 13:08:54;;;;;;;1.55;0.90;;;11.20;96.10;;;;;;5048577;28;20025;-74
2022/12/28 13:11:20;;;;;;;;;;;11.30;95.60;;;;;;5046602;28;20028;-75
2022/12/28 13:13:51;;;;;;;1.30;1.05;;;11.40;95.80;;;;;;5051824;28;19920;-75
2022/12/28 13:16:26;;;;;;;6.05;1.45;;;11.70;94.90;;;;;;5056286;28;20608;-76
2022/12/28 13:19:04;;;;;;;4.18;1.80;;;12.10;94.60;;;;;;5053186;28;20083;-76
2022/12/28 13:21:44;;;;;;;2.72;1.55;;;13.00;92.10;;;;;;5049549;28;20560;-76
2022/12/28 13:24:26;;;;;;;1.95;1.48;;;13.20;93.60;;;;;;5054344;28;20024;-74
2022/12/28 13:26:52;;;;;;;1.17;1.08;;;;;;;;;;5052271;28;20083;-75
2022/12/28 13:29:21;;;;;;;0.80;0.60;;;14.20;90.90;;;;;;5056838;28;20198;-76
2022/12/28 13:31:48;;;;;;;5.63;1.90;;;;;;;;;;5046676;28;20063;-76
2022/12/28 13:34:17;;;;;;;1.58;1.48;;;;;;;;;;5063978;28;20068;-75
2022/12/28 13:36:56;;;;;;;7.70;1.17;;;12.40;93.20;;;;;;5047980;28;20029;-75
2022/12/28 13:39:27;;;;;;;2.83;1.23;;;12.30;93.20;;;;;;5050467;28;20045;-75
2022/12/28 13:41:57;;;;;;;1.33;1.20;;;11.80;93.90;;;;;;5051312;28;20348;-74
2022/12/28 13:44:43;;;;;;;3.55;1.02;;;11.70;94.40;;;;;;5045723;28;20095;-75
2022/12/28 13:47:29;;;;;;;1.13;1.02;;;11.80;94.70;;;;;;5046060;28;20044;-75
2022/12/28 13:50:13;;;;;;;3.65;1.73;;;11.80;95.60;;;;;;5042842;28;20072;-75
2022/12/28 13:52:41;;;;;;;3.88;1.58;;;11.90;95.10;;;;;;5038550;28;20583;-75
2022/12/28 13:55:40;;;;;;;5.43;1.73;;;;;;;;;;5050516;28;20048;-74